sensor_id;sensor_type;location;lat;lon;timestamp;P1;durP1;ratioP1;P2;durP2;ratioP2
20399;SDS011;10359;53.596;22.520;2023-02-28T00:01:58;33.27;;;16.43;;
20399;SDS011;10359;53.596;22.520;2023-02-28T00:04:47;28.90;;;15.13;;
20399;SDS011;10359;53.596;22.520;2023-02-28T00:07:41;29.50;;;16.03;;
20399;SDS011;10359;53.596;22.520;2023-02-28T00:10:31;39.63;;;18.47;;
20399;SDS011;10359;53.596;22.520;2023-02-28T00:13:20;37.80;;;19.70;;
20399;SDS011;10359;53.596;22.520;2023-02-28T00:16:11;37.53;;;18.13;;
20399;SDS011;10359;53.596;22.520;2023-02-28T00:19:02;31.93;;;16.77;;
20399;SDS011;10359;53.596;22.520;2023-02-28T00:21:51;35.00;;;17.50;;
20399;SDS011;10359;53.596;22.520;2023-02-28T00:24:43;42.43;;;20.10;;
20399;SDS011;10359;53.596;22.520;2023-02-28T00:27:33;37.20;;;17.43;;
20399;SDS011;10359;53.596;22.520;2023-02-28T00:30:23;33.57;;;16.97;;
20399;SDS011;10359;53.596;22.520;2023-02-28T00:33:13;35.40;;;17.20;;
20399;SDS011;10359;53.596;22.520;2023-02-28T00:36:03;35.87;;;17.63;;
20399;SDS011;10359;53.596;22.520;2023-02-28T00:38:55;32.37;;;17.10;;
20399;SDS011;10359;53.596;22.520;2023-02-28T00:41:49;34.53;;;17.50;;
20399;SDS011;10359;53.596;22.520;2023-02-28T00:44:39;33.87;;;17.10;;
20399;SDS011;10359;53.596;22.520;2023-02-28T00:47:29;30.63;;;16.20;;
20399;SDS011;10359;53.596;22.520;2023-02-28T00:50:19;32.57;;;15.93;;
20399;SDS011;10359;53.596;22.520;2023-02-28T00:53:09;31.70;;;16.50;;
20399;SDS011;10359;53.596;22.520;2023-02-28T00:55:58;33.20;;;15.03;;
20399;SDS011;10359;53.596;22.520;2023-02-28T00:58:50;31.90;;;15.57;;
20399;SDS011;10359;53.596;22.520;2023-02-28T01:01:40;28.40;;;14.30;;
20399;SDS011;10359;53.596;22.520;2023-02-28T01:04:31;29.60;;;14.80;;
20399;SDS011;10359;53.596;22.520;2023-02-28T01:07:21;30.47;;;14.53;;
20399;SDS011;10359;53.596;22.520;2023-02-28T01:10:11;27.43;;;14.20;;
20399;SDS011;10359;53.596;22.520;2023-02-28T01:13:01;22.43;;;12.73;;
20399;SDS011;10359;53.596;22.520;2023-02-28T01:15:54;23.33;;;13.10;;
20399;SDS011;10359;53.596;22.520;2023-02-28T01:18:44;23.73;;;12.43;;
20399;SDS011;10359;53.596;22.520;2023-02-28T01:21:34;26.07;;;13.17;;
20399;SDS011;10359;53.596;22.520;2023-02-28T01:24:23;28.13;;;13.10;;
20399;SDS011;10359;53.596;22.520;2023-02-28T01:27:13;26.40;;;13.10;;
20399;SDS011;10359;53.596;22.520;2023-02-28T01:30:03;25.20;;;13.03;;
20399;SDS011;10359;53.596;22.520;2023-02-28T01:32:55;23.67;;;12.57;;
20399;SDS011;10359;53.596;22.520;2023-02-28T01:35:45;26.63;;;12.40;;
20399;SDS011;10359;53.596;22.520;2023-02-28T01:38:34;26.00;;;13.20;;
20399;SDS011;10359;53.596;22.520;2023-02-28T01:41:25;25.20;;;12.63;;
20399;SDS011;10359;53.596;22.520;2023-02-28T01:47:43;24.03;;;12.03;;
20399;SDS011;10359;53.596;22.520;2023-02-28T01:50:37;27.03;;;12.80;;
20399;SDS011;10359;53.596;22.520;2023-02-28T01:53:32;22.63;;;12.20;;
20399;SDS011;10359;53.596;22.520;2023-02-28T01:56:26;26.50;;;13.37;;
20399;SDS011;10359;53.596;22.520;2023-02-28T01:59:19;21.07;;;11.63;;
20399;SDS011;10359;53.596;22.520;2023-02-28T02:02:12;25.17;;;13.03;;
20399;SDS011;10359;53.596;22.520;2023-02-28T02:05:04;26.83;;;13.60;;
20399;SDS011;10359;53.596;22.520;2023-02-28T02:07:57;22.40;;;11.87;;
20399;SDS011;10359;53.596;22.520;2023-02-28T02:13:37;23.10;;;11.80;;
20399;SDS011;10359;53.596;22.520;2023-02-28T02:16:47;21.53;;;11.50;;
20399;SDS011;10359;53.596;22.520;2023-02-28T02:23:36;21.60;;;10.93;;
20399;SDS011;10359;53.596;22.520;2023-02-28T02:26:59;24.83;;;12.73;;
20399;SDS011;10359;53.596;22.520;2023-02-28T02:33:43;21.80;;;11.63;;
20399;SDS011;10359;53.596;22.520;2023-02-28T02:37:07;25.60;;;11.93;;
20399;SDS011;10359;53.596;22.520;2023-02-28T02:40:04;28.00;;;11.77;;
20399;SDS011;10359;53.596;22.520;2023-02-28T02:43:00;20.93;;;11.63;;
20399;SDS011;10359;53.596;22.520;2023-02-28T02:45:54;23.47;;;11.33;;
20399;SDS011;10359;53.596;22.520;2023-02-28T02:48:46;21.33;;;11.33;;
20399;SDS011;10359;53.596;22.520;2023-02-28T02:51:37;20.63;;;11.57;;
20399;SDS011;10359;53.596;22.520;2023-02-28T02:54:31;21.57;;;11.00;;
20399;SDS011;10359;53.596;22.520;2023-02-28T02:57:29;24.70;;;11.60;;
20399;SDS011;10359;53.596;22.520;2023-02-28T03:00:24;22.43;;;11.23;;
20399;SDS011;10359;53.596;22.520;2023-02-28T03:03:17;19.17;;;11.07;;
20399;SDS011;10359;53.596;22.520;2023-02-28T03:06:16;22.50;;;11.90;;
20399;SDS011;10359;53.596;22.520;2023-02-28T03:09:05;17.53;;;10.47;;
20399;SDS011;10359;53.596;22.520;2023-02-28T03:11:58;22.67;;;11.40;;
20399;SDS011;10359;53.596;22.520;2023-02-28T03:14:55;15.47;;;9.00;;
20399;SDS011;10359;53.596;22.520;2023-02-28T03:17:57;22.60;;;10.83;;
20399;SDS011;10359;53.596;22.520;2023-02-28T03:20:56;26.33;;;13.27;;
20399;SDS011;10359;53.596;22.520;2023-02-28T03:23:56;24.40;;;12.17;;
20399;SDS011;10359;53.596;22.520;2023-02-28T03:26:54;22.77;;;11.70;;
20399;SDS011;10359;53.596;22.520;2023-02-28T03:29:50;22.17;;;11.60;;
20399;SDS011;10359;53.596;22.520;2023-02-28T03:32:49;20.40;;;10.87;;
20399;SDS011;10359;53.596;22.520;2023-02-28T03:35:45;22.37;;;11.67;;
20399;SDS011;10359;53.596;22.520;2023-02-28T03:38:41;24.20;;;11.07;;
20399;SDS011;10359;53.596;22.520;2023-02-28T03:41:36;25.27;;;13.37;;
20399;SDS011;10359;53.596;22.520;2023-02-28T03:44:32;25.17;;;12.00;;
20399;SDS011;10359;53.596;22.520;2023-02-28T03:47:27;18.93;;;11.13;;
20399;SDS011;10359;53.596;22.520;2023-02-28T03:50:23;18.33;;;11.20;;
20399;SDS011;10359;53.596;22.520;2023-02-28T03:53:17;22.33;;;11.37;;
20399;SDS011;10359;53.596;22.520;2023-02-28T03:56:13;20.70;;;11.70;;
20399;SDS011;10359;53.596;22.520;2023-02-28T03:59:07;23.00;;;12.17;;
20399;SDS011;10359;53.596;22.520;2023-02-28T04:02:04;18.80;;;10.80;;
20399;SDS011;10359;53.596;22.520;2023-02-28T04:04:56;20.80;;;10.73;;
20399;SDS011;10359;53.596;22.520;2023-02-28T04:07:47;21.37;;;11.53;;
20399;SDS011;10359;53.596;22.520;2023-02-28T04:10:37;19.00;;;10.80;;
20399;SDS011;10359;53.596;22.520;2023-02-28T04:13:30;18.23;;;10.53;;
20399;SDS011;10359;53.596;22.520;2023-02-28T04:16:23;20.83;;;11.40;;
20399;SDS011;10359;53.596;22.520;2023-02-28T04:19:21;20.53;;;11.63;;
20399;SDS011;10359;53.596;22.520;2023-02-28T04:22:12;22.80;;;11.60;;
20399;SDS011;10359;53.596;22.520;2023-02-28T04:25:05;19.90;;;10.97;;
20399;SDS011;10359;53.596;22.520;2023-02-28T04:27:56;18.93;;;11.07;;
20399;SDS011;10359;53.596;22.520;2023-02-28T04:30:46;20.17;;;11.00;;
20399;SDS011;10359;53.596;22.520;2023-02-28T04:33:38;19.73;;;10.00;;
20399;SDS011;10359;53.596;22.520;2023-02-28T04:36:31;23.23;;;11.37;;
20399;SDS011;10359;53.596;22.520;2023-02-28T04:39:23;17.80;;;10.87;;
20399;SDS011;10359;53.596;22.520;2023-02-28T04:42:14;20.87;;;10.30;;
20399;SDS011;10359;53.596;22.520;2023-02-28T04:45:05;18.00;;;10.57;;
20399;SDS011;10359;53.596;22.520;2023-02-28T04:47:57;19.97;;;10.90;;
20399;SDS011;10359;53.596;22.520;2023-02-28T04:50:47;21.70;;;11.13;;
20399;SDS011;10359;53.596;22.520;2023-02-28T04:53:38;22.07;;;11.33;;
20399;SDS011;10359;53.596;22.520;2023-02-28T04:56:31;15.87;;;10.07;;
20399;SDS011;10359;53.596;22.520;2023-02-28T04:59:20;25.60;;;11.40;;
20399;SDS011;10359;53.596;22.520;2023-02-28T05:02:10;24.30;;;11.20;;
20399;SDS011;10359;53.596;22.520;2023-02-28T05:04:59;21.40;;;10.17;;
20399;SDS011;10359;53.596;22.520;2023-02-28T05:07:49;14.33;;;9.50;;
20399;SDS011;10359;53.596;22.520;2023-02-28T05:10:40;20.90;;;10.03;;
20399;SDS011;10359;53.596;22.520;2023-02-28T05:13:33;15.70;;;9.93;;
20399;SDS011;10359;53.596;22.520;2023-02-28T05:16:23;20.20;;;10.33;;
20399;SDS011;10359;53.596;22.520;2023-02-28T05:19:17;18.73;;;10.43;;
20399;SDS011;10359;53.596;22.520;2023-02-28T05:22:12;21.83;;;10.23;;
20399;SDS011;10359;53.596;22.520;2023-02-28T05:25:04;19.17;;;10.33;;
20399;SDS011;10359;53.596;22.520;2023-02-28T05:27:54;20.43;;;10.20;;
20399;SDS011;10359;53.596;22.520;2023-02-28T05:30:47;15.57;;;9.63;;
20399;SDS011;10359;53.596;22.520;2023-02-28T05:33:38;20.97;;;10.50;;
20399;SDS011;10359;53.596;22.520;2023-02-28T05:36:28;17.73;;;9.90;;
20399;SDS011;10359;53.596;22.520;2023-02-28T05:39:18;19.83;;;11.00;;
20399;SDS011;10359;53.596;22.520;2023-02-28T05:42:07;20.83;;;10.20;;
20399;SDS011;10359;53.596;22.520;2023-02-28T05:44:59;16.97;;;9.70;;
20399;SDS011;10359;53.596;22.520;2023-02-28T05:47:54;22.00;;;11.20;;
20399;SDS011;10359;53.596;22.520;2023-02-28T05:50:45;18.70;;;10.27;;
20399;SDS011;10359;53.596;22.520;2023-02-28T05:53:34;20.13;;;10.50;;
20399;SDS011;10359;53.596;22.520;2023-02-28T05:56:25;23.10;;;10.67;;
20399;SDS011;10359;53.596;22.520;2023-02-28T05:59:15;22.60;;;11.50;;
20399;SDS011;10359;53.596;22.520;2023-02-28T06:02:04;22.40;;;10.90;;
20399;SDS011;10359;53.596;22.520;2023-02-28T06:04:56;20.10;;;10.03;;
20399;SDS011;10359;53.596;22.520;2023-02-28T06:07:46;19.40;;;10.50;;
20399;SDS011;10359;53.596;22.520;2023-02-28T06:10:37;18.37;;;10.90;;
20399;SDS011;10359;53.596;22.520;2023-02-28T06:13:26;22.27;;;11.33;;
20399;SDS011;10359;53.596;22.520;2023-02-28T06:16:16;22.03;;;11.30;;
20399;SDS011;10359;53.596;22.520;2023-02-28T06:19:10;16.33;;;10.47;;
20399;SDS011;10359;53.596;22.520;2023-02-28T06:22:02;23.53;;;12.33;;
20399;SDS011;10359;53.596;22.520;2023-02-28T06:24:52;21.63;;;11.43;;
20399;SDS011;10359;53.596;22.520;2023-02-28T06:27:42;18.37;;;10.67;;
20399;SDS011;10359;53.596;22.520;2023-02-28T06:30:31;23.47;;;11.13;;
20399;SDS011;10359;53.596;22.520;2023-02-28T06:33:22;17.60;;;10.97;;
20399;SDS011;10359;53.596;22.520;2023-02-28T06:36:13;24.27;;;11.33;;
20399;SDS011;10359;53.596;22.520;2023-02-28T06:39:06;24.63;;;12.10;;
20399;SDS011;10359;53.596;22.520;2023-02-28T06:41:57;17.67;;;10.53;;
20399;SDS011;10359;53.596;22.520;2023-02-28T06:44:46;20.90;;;10.57;;
20399;SDS011;10359;53.596;22.520;2023-02-28T06:47:37;19.90;;;10.27;;
20399;SDS011;10359;53.596;22.520;2023-02-28T06:50:28;18.60;;;10.97;;
20399;SDS011;10359;53.596;22.520;2023-02-28T06:53:19;19.93;;;10.87;;
20399;SDS011;10359;53.596;22.520;2023-02-28T06:56:11;19.57;;;11.03;;
20399;SDS011;10359;53.596;22.520;2023-02-28T06:59:02;17.87;;;10.53;;
20399;SDS011;10359;53.596;22.520;2023-02-28T07:01:53;19.87;;;10.57;;
20399;SDS011;10359;53.596;22.520;2023-02-28T07:04:44;18.80;;;10.37;;
20399;SDS011;10359;53.596;22.520;2023-02-28T07:07:35;19.57;;;10.13;;
20399;SDS011;10359;53.596;22.520;2023-02-28T07:10:28;19.37;;;10.60;;
20399;SDS011;10359;53.596;22.520;2023-02-28T07:13:20;18.67;;;11.53;;
20399;SDS011;10359;53.596;22.520;2023-02-28T07:16:14;21.73;;;10.80;;
20399;SDS011;10359;53.596;22.520;2023-02-28T07:19:06;17.40;;;10.53;;
20399;SDS011;10359;53.596;22.520;2023-02-28T07:21:58;17.37;;;9.80;;
20399;SDS011;10359;53.596;22.520;2023-02-28T07:24:49;16.87;;;9.90;;
20399;SDS011;10359;53.596;22.520;2023-02-28T07:27:39;16.87;;;9.47;;
20399;SDS011;10359;53.596;22.520;2023-02-28T07:30:32;15.47;;;8.97;;
20399;SDS011;10359;53.596;22.520;2023-02-28T07:33:21;15.80;;;9.10;;
20399;SDS011;10359;53.596;22.520;2023-02-28T07:36:13;16.00;;;10.10;;
20399;SDS011;10359;53.596;22.520;2023-02-28T07:39:06;17.07;;;10.07;;
20399;SDS011;10359;53.596;22.520;2023-02-28T07:41:56;16.37;;;9.20;;
20399;SDS011;10359;53.596;22.520;2023-02-28T07:44:47;16.90;;;9.70;;
20399;SDS011;10359;53.596;22.520;2023-02-28T07:47:40;17.10;;;8.77;;
20399;SDS011;10359;53.596;22.520;2023-02-28T07:50:32;12.07;;;7.77;;
20399;SDS011;10359;53.596;22.520;2023-02-28T07:53:24;13.17;;;7.63;;
20399;SDS011;10359;53.596;22.520;2023-02-28T07:56:14;11.83;;;6.97;;
20399;SDS011;10359;53.596;22.520;2023-02-28T07:59:04;14.07;;;8.00;;
20399;SDS011;10359;53.596;22.520;2023-02-28T08:01:54;13.27;;;7.67;;
20399;SDS011;10359;53.596;22.520;2023-02-28T08:04:52;12.77;;;7.33;;
20399;SDS011;10359;53.596;22.520;2023-02-28T08:07:43;8.10;;;4.57;;
20399;SDS011;10359;53.596;22.520;2023-02-28T08:10:36;10.73;;;7.27;;
20399;SDS011;10359;53.596;22.520;2023-02-28T08:13:26;9.90;;;6.43;;
20399;SDS011;10359;53.596;22.520;2023-02-28T08:19:44;9.50;;;6.27;;
20399;SDS011;10359;53.596;22.520;2023-02-28T08:22:36;9.27;;;6.07;;
20399;SDS011;10359;53.596;22.520;2023-02-28T08:25:32;9.97;;;6.77;;
20399;SDS011;10359;53.596;22.520;2023-02-28T08:28:22;12.33;;;7.77;;
20399;SDS011;10359;53.596;22.520;2023-02-28T08:31:14;13.23;;;7.90;;
20399;SDS011;10359;53.596;22.520;2023-02-28T08:34:06;13.23;;;7.67;;
20399;SDS011;10359;53.596;22.520;2023-02-28T08:36:58;10.50;;;7.23;;
20399;SDS011;10359;53.596;22.520;2023-02-28T08:39:49;12.30;;;8.10;;
20399;SDS011;10359;53.596;22.520;2023-02-28T08:42:42;16.90;;;7.90;;
20399;SDS011;10359;53.596;22.520;2023-02-28T08:45:32;13.30;;;8.23;;
20399;SDS011;10359;53.596;22.520;2023-02-28T08:48:22;15.40;;;8.70;;
20399;SDS011;10359;53.596;22.520;2023-02-28T08:51:12;16.97;;;9.00;;
20399;SDS011;10359;53.596;22.520;2023-02-28T08:54:07;14.80;;;8.10;;
20399;SDS011;10359;53.596;22.520;2023-02-28T08:57:01;14.07;;;7.83;;
20399;SDS011;10359;53.596;22.520;2023-02-28T08:59:52;13.17;;;8.27;;
20399;SDS011;10359;53.596;22.520;2023-02-28T09:02:41;14.10;;;7.93;;
20399;SDS011;10359;53.596;22.520;2023-02-28T09:05:31;16.00;;;8.60;;
20399;SDS011;10359;53.596;22.520;2023-02-28T09:08:21;13.50;;;8.53;;
20399;SDS011;10359;53.596;22.520;2023-02-28T09:11:12;13.80;;;8.73;;
20399;SDS011;10359;53.596;22.520;2023-02-28T09:14:07;15.77;;;8.33;;
20399;SDS011;10359;53.596;22.520;2023-02-28T09:16:58;18.13;;;8.27;;
20399;SDS011;10359;53.596;22.520;2023-02-28T09:19:47;13.37;;;8.77;;
20399;SDS011;10359;53.596;22.520;2023-02-28T09:22:38;14.93;;;8.70;;
20399;SDS011;10359;53.596;22.520;2023-02-28T09:25:28;12.30;;;8.37;;
20399;SDS011;10359;53.596;22.520;2023-02-28T09:28:17;14.97;;;8.93;;
20399;SDS011;10359;53.596;22.520;2023-02-28T09:31:13;15.10;;;8.33;;
20399;SDS011;10359;53.596;22.520;2023-02-28T09:34:04;12.10;;;7.00;;
20399;SDS011;10359;53.596;22.520;2023-02-28T09:36:54;14.80;;;7.93;;
20399;SDS011;10359;53.596;22.520;2023-02-28T09:39:44;14.90;;;8.40;;
20399;SDS011;10359;53.596;22.520;2023-02-28T09:42:35;13.87;;;8.90;;
20399;SDS011;10359;53.596;22.520;2023-02-28T09:45:31;14.07;;;8.40;;
20399;SDS011;10359;53.596;22.520;2023-02-28T09:48:27;12.03;;;7.57;;
20399;SDS011;10359;53.596;22.520;2023-02-28T09:51:28;12.43;;;7.53;;
20399;SDS011;10359;53.596;22.520;2023-02-28T09:54:28;11.60;;;7.10;;
20399;SDS011;10359;53.596;22.520;2023-02-28T09:57:23;12.30;;;7.70;;
20399;SDS011;10359;53.596;22.520;2023-02-28T10:00:21;11.17;;;5.80;;
20399;SDS011;10359;53.596;22.520;2023-02-28T10:03:24;7.40;;;5.33;;
20399;SDS011;10359;53.596;22.520;2023-02-28T10:06:19;7.47;;;5.50;;
20399;SDS011;10359;53.596;22.520;2023-02-28T10:09:13;9.53;;;5.60;;
20399;SDS011;10359;53.596;22.520;2023-02-28T10:12:09;11.00;;;5.17;;
20399;SDS011;10359;53.596;22.520;2023-02-28T10:15:01;7.63;;;4.90;;
20399;SDS011;10359;53.596;22.520;2023-02-28T10:17:54;6.87;;;4.73;;
20399;SDS011;10359;53.596;22.520;2023-02-28T10:20:58;10.50;;;5.43;;
20399;SDS011;10359;53.596;22.520;2023-02-28T10:23:49;6.33;;;4.83;;
20399;SDS011;10359;53.596;22.520;2023-02-28T10:26:41;8.43;;;4.47;;
20399;SDS011;10359;53.596;22.520;2023-02-28T10:29:33;9.50;;;5.00;;
20399;SDS011;10359;53.596;22.520;2023-02-28T10:32:24;8.40;;;4.80;;
20399;SDS011;10359;53.596;22.520;2023-02-28T10:35:18;6.83;;;4.60;;
20399;SDS011;10359;53.596;22.520;2023-02-28T10:38:14;8.93;;;4.50;;
20399;SDS011;10359;53.596;22.520;2023-02-28T10:41:07;6.47;;;4.83;;
20399;SDS011;10359;53.596;22.520;2023-02-28T10:44:12;7.13;;;4.57;;
20399;SDS011;10359;53.596;22.520;2023-02-28T10:47:05;6.83;;;4.37;;
20399;SDS011;10359;53.596;22.520;2023-02-28T10:50:02;7.87;;;4.77;;
20399;SDS011;10359;53.596;22.520;2023-02-28T10:52:53;4.87;;;3.97;;
20399;SDS011;10359;53.596;22.520;2023-02-28T10:55:45;6.83;;;4.60;;
20399;SDS011;10359;53.596;22.520;2023-02-28T10:58:54;5.50;;;4.07;;
20399;SDS011;10359;53.596;22.520;2023-02-28T11:01:46;4.90;;;3.90;;
20399;SDS011;10359;53.596;22.520;2023-02-28T11:04:40;5.30;;;3.53;;
20399;SDS011;10359;53.596;22.520;2023-02-28T11:07:31;6.43;;;3.77;;
20399;SDS011;10359;53.596;22.520;2023-02-28T11:10:38;6.00;;;3.97;;
20399;SDS011;10359;53.596;22.520;2023-02-28T11:13:31;5.07;;;3.57;;
20399;SDS011;10359;53.596;22.520;2023-02-28T11:16:22;5.23;;;3.57;;
20399;SDS011;10359;53.596;22.520;2023-02-28T11:19:23;4.47;;;3.13;;
20399;SDS011;10359;53.596;22.520;2023-02-28T11:22:17;4.90;;;3.40;;
20399;SDS011;10359;53.596;22.520;2023-02-28T11:25:09;6.67;;;4.03;;
20399;SDS011;10359;53.596;22.520;2023-02-28T11:28:22;4.77;;;3.90;;
20399;SDS011;10359;53.596;22.520;2023-02-28T11:31:17;5.87;;;3.80;;
20399;SDS011;10359;53.596;22.520;2023-02-28T11:34:27;4.63;;;3.80;;
20399;SDS011;10359;53.596;22.520;2023-02-28T11:37:17;7.73;;;4.30;;
20399;SDS011;10359;53.596;22.520;2023-02-28T11:40:09;6.27;;;4.50;;
20399;SDS011;10359;53.596;22.520;2023-02-28T11:43:06;6.60;;;4.63;;
20399;SDS011;10359;53.596;22.520;2023-02-28T11:46:20;7.63;;;4.37;;
20399;SDS011;10359;53.596;22.520;2023-02-28T11:49:32;7.43;;;4.77;;
20399;SDS011;10359;53.596;22.520;2023-02-28T11:52:29;6.10;;;4.40;;
20399;SDS011;10359;53.596;22.520;2023-02-28T11:55:30;7.50;;;5.03;;
20399;SDS011;10359;53.596;22.520;2023-02-28T11:58:30;7.80;;;5.10;;
20399;SDS011;10359;53.596;22.520;2023-02-28T12:01:37;9.63;;;5.40;;
20399;SDS011;10359;53.596;22.520;2023-02-28T12:04:38;8.53;;;5.60;;
20399;SDS011;10359;53.596;22.520;2023-02-28T12:07:38;8.43;;;5.27;;
20399;SDS011;10359;53.596;22.520;2023-02-28T12:10:38;7.13;;;4.97;;
20399;SDS011;10359;53.596;22.520;2023-02-28T12:13:40;7.93;;;4.80;;
20399;SDS011;10359;53.596;22.520;2023-02-28T12:16:43;5.40;;;4.30;;
20399;SDS011;10359;53.596;22.520;2023-02-28T12:19:45;7.13;;;4.63;;
20399;SDS011;10359;53.596;22.520;2023-02-28T12:22:47;5.97;;;4.30;;
20399;SDS011;10359;53.596;22.520;2023-02-28T12:28:54;5.13;;;3.63;;
20399;SDS011;10359;53.596;22.520;2023-02-28T12:31:51;4.43;;;3.23;;
20399;SDS011;10359;53.596;22.520;2023-02-28T12:34:45;4.17;;;3.03;;
20399;SDS011;10359;53.596;22.520;2023-02-28T12:37:38;3.80;;;3.30;;
20399;SDS011;10359;53.596;22.520;2023-02-28T12:40:38;5.90;;;3.37;;
20399;SDS011;10359;53.596;22.520;2023-02-28T12:43:34;5.20;;;3.30;;
20399;SDS011;10359;53.596;22.520;2023-02-28T12:46:37;4.40;;;3.40;;
20399;SDS011;10359;53.596;22.520;2023-02-28T12:49:33;4.07;;;3.20;;
20399;SDS011;10359;53.596;22.520;2023-02-28T12:52:29;4.27;;;3.20;;
20399;SDS011;10359;53.596;22.520;2023-02-28T12:55:30;5.53;;;3.23;;
20399;SDS011;10359;53.596;22.520;2023-02-28T12:58:30;4.43;;;2.87;;
20399;SDS011;10359;53.596;22.520;2023-02-28T13:01:31;5.13;;;2.97;;
20399;SDS011;10359;53.596;22.520;2023-02-28T13:04:57;3.57;;;2.90;;
20399;SDS011;10359;53.596;22.520;2023-02-28T13:08:13;5.30;;;3.30;;
20399;SDS011;10359;53.596;22.520;2023-02-28T13:11:25;3.60;;;2.87;;
20399;SDS011;10359;53.596;22.520;2023-02-28T13:14:22;4.83;;;3.33;;
20399;SDS011;10359;53.596;22.520;2023-02-28T13:17:17;5.57;;;3.00;;
20399;SDS011;10359;53.596;22.520;2023-02-28T13:20:16;4.37;;;2.87;;
20399;SDS011;10359;53.596;22.520;2023-02-28T13:23:16;3.97;;;2.60;;
20399;SDS011;10359;53.596;22.520;2023-02-28T13:40:29;5.77;;;3.10;;
20399;SDS011;10359;53.596;22.520;2023-02-28T13:43:24;3.93;;;2.93;;
20399;SDS011;10359;53.596;22.520;2023-02-28T13:50:23;3.83;;;2.80;;
20399;SDS011;10359;53.596;22.520;2023-02-28T13:53:30;5.53;;;3.10;;
20399;SDS011;10359;53.596;22.520;2023-02-28T13:56:36;3.77;;;2.40;;
20399;SDS011;10359;53.596;22.520;2023-02-28T13:59:34;4.03;;;2.70;;
20399;SDS011;10359;53.596;22.520;2023-02-28T14:02:42;4.17;;;2.77;;
20399;SDS011;10359;53.596;22.520;2023-02-28T14:05:44;3.63;;;2.23;;
20399;SDS011;10359;53.596;22.520;2023-02-28T14:08:36;3.67;;;2.73;;
20399;SDS011;10359;53.596;22.520;2023-02-28T14:11:28;3.83;;;2.57;;
20399;SDS011;10359;53.596;22.520;2023-02-28T14:17:44;3.80;;;2.30;;
20399;SDS011;10359;53.596;22.520;2023-02-28T14:20:35;3.60;;;2.43;;
20399;SDS011;10359;53.596;22.520;2023-02-28T14:23:33;3.30;;;2.60;;
20399;SDS011;10359;53.596;22.520;2023-02-28T14:37:00;5.27;;;3.30;;
20399;SDS011;10359;53.596;22.520;2023-02-28T14:39:52;5.23;;;3.50;;
20399;SDS011;10359;53.596;22.520;2023-02-28T14:42:54;5.80;;;3.50;;
20399;SDS011;10359;53.596;22.520;2023-02-28T14:45:47;5.73;;;3.60;;
20399;SDS011;10359;53.596;22.520;2023-02-28T14:48:39;5.30;;;3.83;;
20399;SDS011;10359;53.596;22.520;2023-02-28T14:51:29;7.33;;;4.07;;
20399;SDS011;10359;53.596;22.520;2023-02-28T14:54:20;11.23;;;4.20;;
20399;SDS011;10359;53.596;22.520;2023-02-28T14:57:20;6.53;;;4.37;;
20399;SDS011;10359;53.596;22.520;2023-02-28T15:00:15;6.40;;;3.97;;
20399;SDS011;10359;53.596;22.520;2023-02-28T15:03:17;6.37;;;4.03;;
20399;SDS011;10359;53.596;22.520;2023-02-28T15:06:12;5.10;;;3.73;;
20399;SDS011;10359;53.596;22.520;2023-02-28T15:09:11;7.07;;;4.13;;
20399;SDS011;10359;53.596;22.520;2023-02-28T15:12:06;6.77;;;4.57;;
20399;SDS011;10359;53.596;22.520;2023-02-28T15:14:56;6.23;;;4.23;;
20399;SDS011;10359;53.596;22.520;2023-02-28T15:17:49;7.27;;;4.50;;
20399;SDS011;10359;53.596;22.520;2023-02-28T15:20:42;7.93;;;4.40;;
20399;SDS011;10359;53.596;22.520;2023-02-28T15:23:34;8.23;;;4.90;;
20399;SDS011;10359;53.596;22.520;2023-02-28T15:26:27;6.87;;;4.83;;
20399;SDS011;10359;53.596;22.520;2023-02-28T15:29:20;7.03;;;4.70;;
20399;SDS011;10359;53.596;22.520;2023-02-28T15:32:20;7.40;;;4.60;;
20399;SDS011;10359;53.596;22.520;2023-02-28T15:35:20;9.23;;;5.17;;
20399;SDS011;10359;53.596;22.520;2023-02-28T15:38:17;8.17;;;4.60;;
20399;SDS011;10359;53.596;22.520;2023-02-28T15:41:21;7.43;;;4.90;;
20399;SDS011;10359;53.596;22.520;2023-02-28T15:44:15;8.03;;;5.30;;
20399;SDS011;10359;53.596;22.520;2023-02-28T15:47:06;9.30;;;5.03;;
20399;SDS011;10359;53.596;22.520;2023-02-28T15:50:08;8.63;;;5.10;;
20399;SDS011;10359;53.596;22.520;2023-02-28T15:53:04;10.10;;;5.23;;
20399;SDS011;10359;53.596;22.520;2023-02-28T15:56:12;8.10;;;5.00;;
20399;SDS011;10359;53.596;22.520;2023-02-28T15:59:15;8.10;;;4.67;;
20399;SDS011;10359;53.596;22.520;2023-02-28T16:02:15;8.80;;;5.10;;
20399;SDS011;10359;53.596;22.520;2023-02-28T16:05:24;6.53;;;4.30;;
20399;SDS011;10359;53.596;22.520;2023-02-28T16:08:25;8.57;;;5.07;;
20399;SDS011;10359;53.596;22.520;2023-02-28T16:11:16;9.87;;;5.10;;
20399;SDS011;10359;53.596;22.520;2023-02-28T16:14:11;7.80;;;4.77;;
20399;SDS011;10359;53.596;22.520;2023-02-28T16:17:05;6.20;;;4.60;;
20399;SDS011;10359;53.596;22.520;2023-02-28T16:19:57;7.43;;;4.20;;
20399;SDS011;10359;53.596;22.520;2023-02-28T16:22:48;8.77;;;4.60;;
20399;SDS011;10359;53.596;22.520;2023-02-28T16:25:41;6.93;;;4.57;;
20399;SDS011;10359;53.596;22.520;2023-02-28T16:28:35;8.50;;;4.67;;
20399;SDS011;10359;53.596;22.520;2023-02-28T16:31:27;7.07;;;4.60;;
20399;SDS011;10359;53.596;22.520;2023-02-28T16:34:18;7.53;;;4.90;;
20399;SDS011;10359;53.596;22.520;2023-02-28T16:37:11;7.97;;;5.00;;
20399;SDS011;10359;53.596;22.520;2023-02-28T16:40:04;8.93;;;5.27;;
20399;SDS011;10359;53.596;22.520;2023-02-28T16:42:58;8.80;;;4.83;;
20399;SDS011;10359;53.596;22.520;2023-02-28T16:45:54;7.80;;;4.77;;
20399;SDS011;10359;53.596;22.520;2023-02-28T16:48:47;7.43;;;4.70;;
20399;SDS011;10359;53.596;22.520;2023-02-28T16:51:39;8.17;;;5.23;;
20399;SDS011;10359;53.596;22.520;2023-02-28T16:54:30;8.07;;;5.07;;
20399;SDS011;10359;53.596;22.520;2023-02-28T16:57:20;9.40;;;5.10;;
20399;SDS011;10359;53.596;22.520;2023-02-28T17:00:15;8.27;;;4.80;;
20399;SDS011;10359;53.596;22.520;2023-02-28T17:03:08;7.97;;;5.00;;
20399;SDS011;10359;53.596;22.520;2023-02-28T17:06:19;7.47;;;4.57;;
20399;SDS011;10359;53.596;22.520;2023-02-28T17:09:14;7.37;;;4.40;;
20399;SDS011;10359;53.596;22.520;2023-02-28T17:12:07;6.70;;;4.20;;
20399;SDS011;10359;53.596;22.520;2023-02-28T17:14:59;7.80;;;4.53;;
20399;SDS011;10359;53.596;22.520;2023-02-28T17:17:55;8.93;;;4.63;;
20399;SDS011;10359;53.596;22.520;2023-02-28T17:20:50;7.90;;;5.00;;
20399;SDS011;10359;53.596;22.520;2023-02-28T17:23:41;9.13;;;4.77;;
20399;SDS011;10359;53.596;22.520;2023-02-28T17:26:31;9.93;;;5.20;;
20399;SDS011;10359;53.596;22.520;2023-02-28T17:29:22;11.30;;;6.13;;
20399;SDS011;10359;53.596;22.520;2023-02-28T17:32:14;10.63;;;5.43;;
20399;SDS011;10359;53.596;22.520;2023-02-28T17:35:08;10.83;;;6.33;;
20399;SDS011;10359;53.596;22.520;2023-02-28T17:38:00;13.57;;;6.70;;
20399;SDS011;10359;53.596;22.520;2023-02-28T17:40:51;13.17;;;7.30;;
20399;SDS011;10359;53.596;22.520;2023-02-28T17:43:44;12.87;;;6.67;;
20399;SDS011;10359;53.596;22.520;2023-02-28T17:46:34;9.53;;;5.77;;
20399;SDS011;10359;53.596;22.520;2023-02-28T17:49:27;11.33;;;6.30;;
20399;SDS011;10359;53.596;22.520;2023-02-28T17:52:18;9.30;;;6.00;;